Time;durP1;ratioP1;P1;durP2;ratioP2;P2;SDS_P1;SDS_P2;PMS_P1;PMS_P2;Temp;Humidity;BMP_temperature;BMP_pressure;BME280_temperature;BME280_humidity;BME280_pressure;Samples;Min_cycle;Max_cycle;Signal;HPM_P1;HPM_P2
2023/04/22 00:00:25;;;;;;;4.15;1.73;;;19.80;99.90;;;;;;5048143;28;20060;-69
2023/04/22 00:02:54;;;;;;;4.88;0.80;;;20.10;99.90;;;;;;5046801;28;20021;-69
2023/04/22 00:05:22;;;;;;;2.70;0.90;;;20.30;99.90;;;;;;5050391;28;20028;-70
2023/04/22 00:07:50;;;;;;;4.38;0.98;;;20.50;99.90;;;;;;5048086;28;20045;-70
2023/04/22 00:10:17;;;;;;;4.05;1.00;;;20.60;99.90;;;;;;5028639;28;20037;-70
2023/04/22 00:12:45;;;;;;;13.23;2.20;;;20.70;99.90;;;;;;5048148;28;20024;-70
2023/04/22 00:15:12;;;;;;;4.38;0.82;;;20.80;99.90;;;;;;5034868;28;20053;-70
2023/04/22 00:17:41;;;;;;;2.72;0.70;;;20.90;99.90;;;;;;5027820;28;20028;-72
2023/04/22 00:20:10;;;;;;;3.47;1.08;;;21.00;99.90;;;;;;5044917;28;20021;-70
2023/04/22 00:22:37;;;;;;;3.70;1.38;;;21.00;99.90;;;;;;5045830;28;20083;-66
2023/04/22 00:25:08;;;;;;;3.85;0.80;;;21.00;99.90;;;;;;5041316;28;20049;-64
2023/04/22 00:27:35;;;;;;;9.52;2.05;;;21.20;99.90;;;;;;5043464;28;20025;-66
2023/04/22 00:30:03;;;;;;;8.60;0.95;;;21.30;99.90;;;;;;5047067;28;20033;-66
2023/04/22 00:32:31;;;;;;;7.43;1.33;;;21.30;99.90;;;;;;5024990;28;20029;-66
2023/04/22 00:34:58;;;;;;;1.13;0.60;;;21.20;99.90;;;;;;5045834;28;20021;-66
2023/04/22 00:37:27;;;;;;;4.07;0.90;;;21.30;99.90;;;;;;5043740;28;20478;-66
2023/04/22 00:39:54;;;;;;;2.58;0.90;;;21.50;99.90;;;;;;5048861;28;20029;-67
2023/04/22 00:42:22;;;;;;;5.82;1.73;;;21.80;99.90;;;;;;5046264;28;20025;-67
2023/04/22 00:44:50;;;;;;;4.05;0.82;;;22.00;99.90;;;;;;5028711;28;20112;-68
2023/04/22 00:47:18;;;;;;;5.53;1.50;;;22.10;99.90;;;;;;5034699;28;20029;-68
2023/04/22 00:49:47;;;;;;;1.50;0.80;;;22.10;99.90;;;;;;5030074;28;20142;-69
2023/04/22 00:52:15;;;;;;;3.78;0.80;;;22.00;99.90;;;;;;5042895;28;20100;-68
2023/04/22 00:54:42;;;;;;;5.47;1.00;;;22.00;99.90;;;;;;5029626;28;20102;-69
2023/04/22 00:57:10;;;;;;;5.30;0.82;;;22.10;99.90;;;;;;5047016;28;20357;-69
2023/04/22 00:59:42;;;;;;;1.27;0.85;;;22.10;99.90;;;;;;5027745;28;20033;-68
2023/04/22 01:02:09;;;;;;;4.45;1.40;;;22.10;99.90;;;;;;5043494;28;20067;-68
2023/04/22 01:04:37;;;;;;;2.05;1.10;;;22.20;99.90;;;;;;5025054;28;20053;-68
2023/04/22 01:07:05;;;;;;;4.20;1.10;;;22.40;99.90;;;;;;5045503;28;20033;-68
2023/04/22 01:09:33;;;;;;;5.15;1.17;;;22.60;99.90;;;;;;5045387;28;20037;-69
2023/04/22 01:12:00;;;;;;;1.98;0.80;;;22.60;99.90;;;;;;5046162;28;20076;-71
2023/04/22 01:14:28;;;;;;;6.82;1.38;;;22.60;99.90;;;;;;5043736;28;20049;-72
2023/04/22 01:16:56;;;;;;;2.33;1.00;;;22.60;99.90;;;;;;5046488;28;20520;-71
2023/04/22 01:19:25;;;;;;;2.53;0.70;;;22.70;99.90;;;;;;5042012;28;20075;-70
2023/04/22 01:21:53;;;;;;;2.03;0.73;;;22.90;99.90;;;;;;5048164;28;20067;-70
2023/04/22 01:24:21;;;;;;;6.30;1.05;;;22.90;99.90;;;;;;5044000;28;20156;-69
2023/04/22 01:26:49;;;;;;;3.78;0.90;;;22.90;99.90;;;;;;5047355;28;20025;-69
2023/04/22 01:29:16;;;;;;;3.80;1.00;;;22.80;99.90;;;;;;5029962;28;20076;-67
2023/04/22 01:31:45;;;;;;;3.08;0.77;;;22.70;99.90;;;;;;5029044;28;20029;-69
2023/04/22 01:34:13;;;;;;;2.05;0.77;;;22.70;99.90;;;;;;5029105;28;20033;-69
2023/04/22 01:36:40;;;;;;;2.80;1.05;;;22.80;99.90;;;;;;5028107;28;20028;-72
2023/04/22 01:39:07;;;;;;;2.20;0.82;;;23.00;99.90;;;;;;5048586;28;20059;-68
2023/04/22 01:41:35;;;;;;;4.18;1.00;;;23.10;99.90;;;;;;5050449;28;20534;-73
2023/04/22 01:44:04;;;;;;;4.28;0.98;;;23.20;99.90;;;;;;5046759;28;20088;-71
2023/04/22 01:46:32;;;;;;;3.45;1.30;;;23.20;99.90;;;;;;5029160;28;20034;-77
2023/04/22 01:49:00;;;;;;;3.55;0.98;;;23.20;99.90;;;;;;5045281;28;20036;-69
2023/04/22 01:51:27;;;;;;;2.60;0.90;;;23.00;99.90;;;;;;5049117;28;20021;-68
2023/04/22 01:53:55;;;;;;;3.47;0.63;;;23.00;99.90;;;;;;5045034;28;20071;-69
2023/04/22 01:56:22;;;;;;;4.10;0.70;;;22.90;99.90;;;;;;5050953;28;20028;-68
2023/04/22 01:58:50;;;;;;;2.17;0.60;;;22.90;99.90;;;;;;5029531;28;20078;-69
2023/04/22 02:01:18;;;;;;;1.52;0.90;;;22.80;99.90;;;;;;5037901;28;20036;-68
2023/04/22 02:03:45;;;;;;;3.35;0.90;;;22.80;99.90;;;;;;5048426;28;20029;-70
2023/04/22 02:06:13;;;;;;;5.30;0.90;;;22.80;99.90;;;;;;5027454;28;20033;-72
2023/04/22 02:08:40;;;;;;;4.30;1.17;;;23.00;99.90;;;;;;5024332;28;20055;-70
2023/04/22 02:11:08;;;;;;;4.00;0.82;;;23.00;99.90;;;;;;5025420;28;20049;-68
2023/04/22 02:13:40;;;;;;;6.47;1.15;;;23.10;99.90;;;;;;5045155;28;20033;-67
2023/04/22 02:16:08;;;;;;;1.42;0.82;;;23.30;99.90;;;;;;5036796;28;20460;-66
2023/04/22 02:18:36;;;;;;;3.28;0.70;;;23.40;99.90;;;;;;5046006;28;20067;-66
2023/04/22 02:21:04;;;;;;;2.40;1.00;;;23.50;99.90;;;;;;5045504;28;20063;-65
2023/04/22 02:23:31;;;;;;;3.20;0.80;;;23.60;99.90;;;;;;5031112;28;20060;-65
2023/04/22 02:25:59;;;;;;;6.05;0.90;;;23.60;99.90;;;;;;5051763;28;20741;-66
2023/04/22 02:28:27;;;;;;;2.13;0.90;;;23.50;99.90;;;;;;5037378;28;20082;-66
2023/04/22 02:30:54;;;;;;;4.50;1.13;;;23.60;99.90;;;;;;5049433;28;20359;-66
2023/04/22 02:33:22;;;;;;;8.98;3.08;;;23.50;99.90;;;;;;5033974;28;20603;-66
2023/04/22 02:35:49;;;;;;;5.22;1.40;;;23.50;99.90;;;;;;5050999;28;20053;-66
2023/04/22 02:38:16;;;;;;;7.15;1.40;;;23.70;99.90;;;;;;5045248;28;20999;-65
2023/04/22 02:40:44;;;;;;;4.32;1.15;;;23.50;99.90;;;;;;5047520;28;20028;-66
2023/04/22 02:43:12;;;;;;;4.88;1.60;;;23.20;99.90;;;;;;5035159;28;20182;-66
2023/04/22 02:45:39;;;;;;;6.20;1.88;;;23.20;99.90;;;;;;5038465;28;20029;-66
2023/04/22 02:48:07;;;;;;;4.90;1.75;;;23.10;99.90;;;;;;5048603;28;20040;-67
2023/04/22 02:50:35;;;;;;;3.40;1.00;;;23.00;99.90;;;;;;5050421;28;20128;-66
2023/04/22 02:53:02;;;;;;;3.70;0.75;;;23.10;99.90;;;;;;5048333;28;20028;-66
2023/04/22 02:55:30;;;;;;;1.63;0.65;;;22.80;99.90;;;;;;5051490;28;20025;-66
2023/04/22 02:57:57;;;;;;;3.05;0.70;;;22.60;99.90;;;;;;5051156;28;20385;-66
2023/04/22 03:00:25;;;;;;;3.75;0.75;;;22.60;99.90;;;;;;5049935;28;20059;-66
2023/04/22 03:02:52;;;;;;;1.85;0.85;;;22.50;99.90;;;;;;5048935;28;20056;-66
2023/04/22 03:05:19;;;;;;;7.97;1.10;;;22.70;99.90;;;;;;5051111;28;20029;-66
2023/04/22 03:07:48;;;;;;;3.30;1.00;;;22.90;99.90;;;;;;5048338;28;20485;-66
2023/04/22 03:10:15;;;;;;;4.13;0.93;;;23.00;99.90;;;;;;5052173;28;20037;-66
2023/04/22 03:12:43;;;;;;;4.28;1.05;;;23.00;99.90;;;;;;5045843;28;20029;-66
2023/04/22 03:15:11;;;;;;;3.15;0.88;;;22.90;99.90;;;;;;5036923;28;20053;-65
2023/04/22 03:17:38;;;;;;;2.97;0.95;;;22.80;99.90;;;;;;5050094;28;20021;-66
2023/04/22 03:20:07;;;;;;;1.90;0.80;;;22.70;99.90;;;;;;5044348;28;20052;-65
2023/04/22 03:22:35;;;;;;;1.80;0.60;;;22.70;99.90;;;;;;5028667;28;20486;-66
2023/04/22 03:25:03;;;;;;;2.85;1.00;;;22.50;99.90;;;;;;5045032;28;20490;-66
2023/04/22 03:27:30;;;;;;;3.10;1.10;;;22.60;99.90;;;;;;5051276;28;20013;-66
2023/04/22 03:29:58;;;;;;;1.33;0.68;;;22.70;99.90;;;;;;5041362;28;20239;-66
2023/04/22 03:32:25;;;;;;;2.25;1.08;;;22.70;99.90;;;;;;5018139;28;20044;-66
2023/04/22 03:34:53;;;;;;;4.07;1.00;;;22.60;99.90;;;;;;5039629;28;20160;-66
2023/04/22 03:37:20;;;;;;;3.53;1.58;;;22.50;99.90;;;;;;5040811;28;20021;-66
2023/04/22 03:39:48;;;;;;;4.70;1.50;;;22.60;99.90;;;;;;5046953;28;20017;-67
2023/04/22 03:42:15;;;;;;;6.25;2.28;;;22.60;99.90;;;;;;5021622;28;20029;-67
2023/04/22 03:44:43;;;;;;;5.10;1.20;;;22.60;99.90;;;;;;5029630;28;20116;-68
2023/04/22 03:47:10;;;;;;;4.60;1.60;;;22.60;99.90;;;;;;5041608;28;20025;-67
2023/04/22 03:49:38;;;;;;;6.93;2.25;;;22.50;99.90;;;;;;5026991;28;20029;-67
2023/04/22 03:52:05;;;;;;;2.95;1.30;;;22.70;99.90;;;;;;5045131;28;20070;-67
2023/04/22 03:54:32;;;;;;;6.45;2.53;;;22.60;99.90;;;;;;5025752;28;20029;-67
2023/04/22 03:57:00;;;;;;;6.85;2.22;;;22.60;99.90;;;;;;5036287;28;20101;-67
2023/04/22 03:59:27;;;;;;;3.50;1.20;;;22.70;99.90;;;;;;5021979;28;20625;-67
2023/04/22 04:01:55;;;;;;;6.03;1.20;;;22.80;99.90;;;;;;5027938;28;20070;-67
2023/04/22 04:04:22;;;;;;;7.97;2.25;;;22.60;99.90;;;;;;5043832;28;20025;-67
2023/04/22 04:06:50;;;;;;;2.05;0.90;;;22.50;99.90;;;;;;5048972;28;20026;-67
2023/04/22 04:09:17;;;;;;;3.70;0.70;;;22.40;99.90;;;;;;5021625;28;20046;-67
2023/04/22 04:11:45;;;;;;;2.20;0.80;;;22.30;99.90;;;;;;5027246;28;20103;-66
2023/04/22 04:14:12;;;;;;;4.65;0.82;;;22.30;99.90;;;;;;5023408;28;20474;-66
2023/04/22 04:16:40;;;;;;;15.57;2.40;;;22.20;99.90;;;;;;5045118;28;20052;-67
2023/04/22 04:19:07;;;;;;;5.72;1.65;;;22.10;99.90;;;;;;5044230;28;20025;-66
2023/04/22 04:21:35;;;;;;;5.03;1.15;;;22.10;99.90;;;;;;5026563;28;20029;-67
2023/04/22 04:24:03;;;;;;;6.07;1.17;;;22.10;99.90;;;;;;5030147;28;20036;-68
2023/04/22 04:26:32;;;;;;;9.13;1.38;;;22.00;99.90;;;;;;5049583;28;20027;-66
2023/04/22 04:29:04;;;;;;;5.07;0.80;;;22.00;99.90;;;;;;5030732;28;20035;-66
2023/04/22 04:31:32;;;;;;;2.35;0.85;;;21.90;99.90;;;;;;5048572;28;20102;-66
2023/04/22 04:34:00;;;;;;;3.35;0.88;;;22.00;99.90;;;;;;5031585;28;20417;-66
2023/04/22 04:36:28;;;;;;;4.30;1.00;;;22.10;99.90;;;;;;5048795;28;20028;-68
2023/04/22 04:38:55;;;;;;;3.67;1.50;;;22.10;99.90;;;;;;5048528;28;20028;-67
2023/04/22 04:41:25;;;;;;;5.07;0.90;;;22.20;99.90;;;;;;5049322;28;20048;-66
2023/04/22 04:43:53;;;;;;;3.92;1.05;;;22.40;99.90;;;;;;5049490;28;20027;-67
2023/04/22 04:46:20;;;;;;;3.42;1.00;;;22.50;99.90;;;;;;5049412;28;20025;-68
2023/04/22 04:48:49;;;;;;;2.95;1.05;;;22.50;99.90;;;;;;5048904;28;20040;-66
2023/04/22 04:51:17;;;;;;;2.17;1.48;;;22.40;99.90;;;;;;5028266;28;20036;-66
2023/04/22 04:53:44;;;;;;;2.47;0.93;;;22.50;99.90;;;;;;5018596;28;20516;-67
2023/04/22 04:56:12;;;;;;;2.97;0.85;;;22.50;99.90;;;;;;5047082;28;20386;-66
2023/04/22 04:58:39;;;;;;;5.25;1.38;;;22.60;99.90;;;;;;5041675;28;20025;-67
2023/04/22 05:01:07;;;;;;;2.80;1.25;;;22.70;99.90;;;;;;5040535;28;20025;-66
2023/04/22 05:03:34;;;;;;;2.60;0.85;;;22.60;99.90;;;;;;5040559;28;20498;-67
2023/04/22 05:06:03;;;;;;;2.80;0.95;;;22.40;99.90;;;;;;5041190;28;20072;-67
2023/04/22 05:08:30;;;;;;;4.13;1.02;;;22.30;99.90;;;;;;5031012;28;20088;-66
2023/04/22 05:10:58;;;;;;;1.83;0.80;;;22.30;99.90;;;;;;5048539;28;20035;-67
2023/04/22 05:13:26;;;;;;;3.10;0.80;;;22.30;99.90;;;;;;5023286;28;20484;-67
2023/04/22 05:15:54;;;;;;;4.90;1.48;;;22.30;99.90;;;;;;5050299;28;20112;-66
2023/04/22 05:18:22;;;;;;;8.55;0.90;;;22.30;99.90;;;;;;5051603;28;20055;-67
2023/04/22 05:20:49;;;;;;;3.45;0.98;;;22.20;99.90;;;;;;5055313;28;20036;-67
2023/04/22 05:23:17;;;;;;;5.30;1.20;;;22.00;99.90;;;;;;5055270;28;20064;-67
2023/04/22 05:25:44;;;;;;;4.32;1.20;;;22.00;99.90;;;;;;5055157;28;20028;-68
2023/04/22 05:28:12;;;;;;;5.57;1.10;;;21.90;99.90;;;;;;5059608;28;20028;-67
2023/04/22 05:30:39;;;;;;;4.88;1.15;;;22.00;99.90;;;;;;5039196;28;20016;-70
2023/04/22 05:33:10;;;;;;;2.95;1.17;;;22.00;99.90;;;;;;5048670;28;20036;-68
2023/04/22 05:35:37;;;;;;;3.70;1.10;;;21.90;99.90;;;;;;5055846;28;20028;-73
2023/04/22 05:38:05;;;;;;;3.88;1.38;;;21.80;99.90;;;;;;5042639;28;20094;-75
2023/04/22 05:40:32;;;;;;;3.42;1.15;;;21.70;99.90;;;;;;5054959;28;20025;-71
2023/04/22 05:43:00;;;;;;;2.42;0.90;;;21.60;99.90;;;;;;5055155;28;20021;-71
2023/04/22 05:45:27;;;;;;;2.67;1.05;;;21.50;99.90;;;;;;5032249;28;20029;-71
2023/04/22 05:47:54;;;;;;;5.40;1.27;;;21.50;99.90;;;;;;5051977;28;20028;-76
2023/04/22 05:50:22;;;;;;;7.53;1.10;;;21.40;99.90;;;;;;5051615;28;20457;-72
2023/04/22 05:52:49;;;;;;;3.55;1.00;;;21.40;99.90;;;;;;5053561;28;20581;-69
2023/04/22 05:55:17;;;;;;;5.13;1.00;;;21.40;99.90;;;;;;5054296;28;20121;-70
2023/04/22 05:57:45;;;;;;;4.38;0.95;;;21.40;99.90;;;;;;5035461;28;20017;-71
2023/04/22 06:00:13;;;;;;;3.97;1.10;;;21.40;99.90;;;;;;5037873;28;20434;-70
2023/04/22 06:02:41;;;;;;;6.13;1.23;;;21.40;99.90;;;;;;5054750;28;20462;-70
2023/04/22 06:05:08;;;;;;;8.20;3.72;;;21.40;99.90;;;;;;5055589;28;20028;-70
2023/04/22 06:07:36;;;;;;;9.13;4.78;;;21.40;99.90;;;;;;5054064;28;20441;-70
2023/04/22 06:10:03;;;;;;;11.68;4.10;;;21.30;99.90;;;;;;5055698;28;20037;-71
2023/04/22 06:12:32;;;;;;;9.88;3.70;;;21.20;99.90;;;;;;5055217;28;20074;-71
2023/04/22 06:15:00;;;;;;;10.10;4.13;;;21.10;99.90;;;;;;5050584;28;20673;-70
2023/04/22 06:17:27;;;;;;;8.05;3.50;;;21.10;99.90;;;;;;5051193;28;20032;-76
2023/04/22 06:19:54;;;;;;;12.90;4.15;;;21.10;99.90;;;;;;5044548;28;20481;-71
2023/04/22 06:22:22;;;;;;;9.80;4.18;;;21.00;99.90;;;;;;5035050;28;20025;-68
2023/04/22 06:24:49;;;;;;;11.88;4.32;;;21.00;99.90;;;;;;5047214;28;20024;-70
2023/04/22 06:27:17;;;;;;;7.78;3.00;;;20.90;99.90;;;;;;5033683;28;20041;-70
2023/04/22 06:29:44;;;;;;;10.30;4.68;;;20.80;99.90;;;;;;5050931;28;20033;-80
2023/04/22 06:32:12;;;;;;;9.80;4.20;;;20.80;99.90;;;;;;5033331;28;20033;-71
2023/04/22 06:34:39;;;;;;;6.47;2.42;;;20.70;99.90;;;;;;5036190;28;20539;-69
2023/04/22 06:37:07;;;;;;;7.07;2.80;;;20.60;99.90;;;;;;5032324;28;20035;-70
2023/04/22 06:39:34;;;;;;;8.90;3.20;;;20.50;99.90;;;;;;5050112;28;20077;-69
2023/04/22 06:42:02;;;;;;;6.63;2.88;;;20.40;99.90;;;;;;5051658;28;20021;-69
2023/04/22 06:44:31;;;;;;;5.72;2.30;;;20.40;99.90;;;;;;5050346;28;20047;-70
2023/04/22 06:46:58;;;;;;;5.85;2.00;;;20.30;99.90;;;;;;5048272;28;20314;-70
2023/04/22 06:49:25;;;;;;;5.75;2.10;;;20.30;99.90;;;;;;5050467;28;20406;-70
2023/04/22 06:51:53;;;;;;;4.25;2.00;;;20.20;99.90;;;;;;5051938;28;20074;-70
2023/04/22 06:54:20;;;;;;;5.60;2.05;;;20.20;99.90;;;;;;5030067;28;20414;-70
2023/04/22 06:56:48;;;;;;;8.15;2.45;;;20.20;99.90;;;;;;5045994;28;20021;-71
2023/04/22 06:59:15;;;;;;;6.22;2.20;;;20.10;99.90;;;;;;5042648;28;20029;-71
2023/04/22 07:01:43;;;;;;;6.28;2.00;;;20.10;99.90;;;;;;5051039;28;20060;-70
2023/04/22 07:04:10;;;;;;;5.20;1.83;;;20.00;99.90;;;;;;5030360;28;20048;-71
2023/04/22 07:06:38;;;;;;;4.65;1.60;;;20.00;99.90;;;;;;5047300;28;20104;-69
2023/04/22 07:09:06;;;;;;;9.35;2.15;;;20.00;99.90;;;;;;5042647;28;20028;-71
2023/04/22 07:11:33;;;;;;;5.80;2.05;;;19.90;99.90;;;;;;5047298;28;20025;-71
2023/04/22 07:14:01;;;;;;;4.55;1.88;;;19.90;99.90;;;;;;5024983;28;20132;-70
2023/04/22 07:16:28;;;;;;;5.70;2.15;;;19.80;99.90;;;;;;5037664;28;20146;-70
2023/04/22 07:18:56;;;;;;;8.00;1.90;;;19.80;99.90;;;;;;5035162;28;20060;-71
2023/04/22 07:21:23;;;;;;;7.50;2.10;;;19.80;99.90;;;;;;5027209;28;20048;-70
2023/04/22 07:23:51;;;;;;;5.13;1.73;;;19.70;99.90;;;;;;5021086;28;20107;-71
2023/04/22 07:26:18;;;;;;;8.60;2.38;;;19.70;99.90;;;;;;5038444;28;20033;-69
2023/04/22 07:28:46;;;;;;;7.78;2.33;;;19.70;99.90;;;;;;5028033;28;20561;-70
2023/04/22 07:31:13;;;;;;;5.07;1.77;;;19.60;99.90;;;;;;5044479;28;20390;-69
2023/04/22 07:33:41;;;;;;;5.53;2.75;;;19.60;99.90;;;;;;5041753;28;20055;-69
2023/04/22 07:36:08;;;;;;;6.47;2.42;;;19.60;99.90;;;;;;5036421;28;20147;-66
2023/04/22 07:38:36;;;;;;;6.40;2.97;;;19.50;99.90;;;;;;5013277;28;20022;-70
2023/04/22 07:41:06;;;;;;;4.63;2.13;;;19.50;99.90;;;;;;5040174;28;20036;-69
2023/04/22 07:43:34;;;;;;;4.93;2.53;;;19.40;99.90;;;;;;5017057;28;20500;-70
2023/04/22 07:46:01;;;;;;;14.10;6.72;;;19.40;99.90;;;;;;5036631;28;20037;-69
2023/04/22 07:48:29;;;;;;;10.30;4.60;;;19.30;99.90;;;;;;5016701;28;20025;-69
2023/04/22 07:50:56;;;;;;;11.50;2.88;;;19.30;99.90;;;;;;5033686;28;20131;-69
2023/04/22 07:53:24;;;;;;;7.40;2.95;;;19.30;99.90;;;;;;5045024;28;20057;-66
2023/04/22 07:55:52;;;;;;;11.60;4.85;;;19.30;99.90;;;;;;5047602;28;20405;-69
2023/04/22 07:58:19;;;;;;;17.80;6.82;;;19.30;99.90;;;;;;5029666;28;20022;-69
2023/04/22 08:00:47;;;;;;;16.27;7.55;;;19.20;99.90;;;;;;5033262;28;20033;-70
2023/04/22 08:03:15;;;;;;;27.77;13.40;;;19.20;99.90;;;;;;5031034;28;20409;-70
2023/04/22 08:05:42;;;;;;;39.70;16.95;;;19.20;99.90;;;;;;5024634;28;20033;-71
2023/04/22 08:08:10;;;;;;;22.33;9.82;;;19.20;99.90;;;;;;5039601;28;20029;-68
2023/04/22 08:10:37;;;;;;;17.45;6.32;;;19.20;99.90;;;;;;5031967;28;20066;-68
2023/04/22 08:13:05;;;;;;;15.82;7.18;;;19.20;99.90;;;;;;5026949;28;20474;-69
2023/04/22 08:15:36;;;;;;;15.00;6.38;;;19.20;99.90;;;;;;5046196;28;20048;-69
2023/04/22 08:18:03;;;;;;;10.50;5.45;;;19.20;99.90;;;;;;5036927;28;20052;-68
2023/04/22 08:20:31;;;;;;;13.77;5.90;;;19.20;99.90;;;;;;5025328;28;20029;-69
2023/04/22 08:22:59;;;;;;;8.38;4.40;;;19.20;99.90;;;;;;5035057;28;20538;-69
2023/04/22 08:25:27;;;;;;;12.30;5.28;;;19.20;99.90;;;;;;5024537;28;20036;-68
2023/04/22 08:27:55;;;;;;;7.43;3.65;;;19.10;99.90;;;;;;5028133;28;20389;-70
2023/04/22 08:30:23;;;;;;;6.60;4.05;;;19.20;99.90;;;;;;5044104;28;20452;-70
2023/04/22 08:32:52;;;;;;;6.05;2.75;;;19.10;99.90;;;;;;5044960;28;20436;-68
2023/04/22 08:35:20;;;;;;;7.32;2.10;;;19.10;99.90;;;;;;5044492;28;20025;-68
2023/04/22 08:37:47;;;;;;;7.53;3.55;;;19.00;99.90;;;;;;5040103;28;20021;-70
2023/04/22 08:40:18;;;;;;;7.55;3.35;;;19.00;99.90;;;;;;5046363;28;20029;-69
2023/04/22 08:42:46;;;;;;;8.95;3.15;;;19.00;99.90;;;;;;5045121;28;20039;-69
2023/04/22 08:45:17;;;;;;;5.82;2.67;;;19.00;99.90;;;;;;5035898;28;20029;-69
2023/04/22 08:47:45;;;;;;;5.15;2.22;;;19.00;99.90;;;;;;5034241;28;20032;-67
2023/04/22 08:50:18;;;;;;;4.65;1.85;;;18.90;99.90;;;;;;5040171;28;20163;-68
2023/04/22 08:52:46;;;;;;;4.67;2.57;;;18.90;99.90;;;;;;5023469;28;20508;-68
2023/04/22 08:55:14;;;;;;;3.40;1.63;;;18.90;99.90;;;;;;5033277;28;20030;-68
2023/04/22 08:57:42;;;;;;;6.38;2.15;;;18.90;99.90;;;;;;5034328;28;20033;-69
2023/04/22 09:00:10;;;;;;;5.13;1.77;;;19.00;99.90;;;;;;5039620;28;20498;-66
2023/04/22 09:02:43;;;;;;;4.72;2.03;;;18.90;99.90;;;;;;5027715;28;20032;-68
2023/04/22 09:05:13;;;;;;;5.35;2.13;;;19.00;99.90;;;;;;5030624;28;20025;-68
2023/04/22 09:07:40;;;;;;;4.53;1.50;;;19.00;99.90;;;;;;5034126;28;20036;-66
2023/04/22 09:10:10;;;;;;;5.82;2.03;;;19.00;99.90;;;;;;5035686;28;20112;-67
2023/04/22 09:12:43;;;;;;;5.05;1.65;;;19.00;99.90;;;;;;5019028;28;20188;-68
2023/04/22 09:15:11;;;;;;;5.50;1.48;;;19.00;99.90;;;;;;5019059;28;20068;-69
2023/04/22 09:17:40;;;;;;;3.72;1.20;;;18.90;99.90;;;;;;5042750;28;20034;-68
2023/04/22 09:20:08;;;;;;;4.35;1.83;;;18.80;99.90;;;;;;5024976;28;20033;-68
2023/04/22 09:22:49;;;;;;;3.00;1.25;;;18.80;99.90;;;;;;5045451;28;20029;-68
2023/04/22 09:25:24;;;;;;;6.95;1.77;;;18.70;99.90;;;;;;5041404;28;20738;-67
2023/04/22 09:27:51;;;;;;;;;;;18.60;99.90;;;;;;5032366;28;20058;-66
2023/04/22 09:30:30;;;;;;;4.15;1.67;;;18.50;99.90;;;;;;5036062;28;20391;-67
2023/04/22 09:33:00;;;;;;;5.78;1.90;;;18.40;99.90;;;;;;5026073;28;20266;-67
2023/04/22 09:35:30;;;;;;;7.43;2.60;;;18.40;99.90;;;;;;5040827;28;20406;-67
2023/04/22 09:38:00;;;;;;;10.65;3.13;;;18.30;99.90;;;;;;5018064;28;20087;-67
2023/04/22 09:40:31;;;;;;;6.28;3.42;;;18.20;99.90;;;;;;5029681;28;20037;-71
2023/04/22 09:43:01;;;;;;;10.48;3.72;;;18.20;99.90;;;;;;5037033;28;20108;-68
2023/04/22 09:45:32;;;;;;;14.18;4.53;;;18.20;99.90;;;;;;5028839;28;20025;-68
2023/04/22 09:48:13;;;;;;;7.25;3.30;;;18.10;99.90;;;;;;5046802;28;20032;-68
2023/04/22 09:50:44;;;;;;;7.57;4.75;;;18.00;99.90;;;;;;5019377;28;20127;-68
2023/04/22 09:53:15;;;;;;;12.52;4.68;;;18.00;99.90;;;;;;5049104;28;20041;-68
2023/04/22 09:55:54;;;;;;;6.82;3.88;;;18.00;99.90;;;;;;5030511;28;20064;-69
2023/04/22 09:58:26;;;;;;;9.60;3.78;;;18.00;99.90;;;;;;5052240;28;20056;-69
2023/04/22 10:00:56;;;;;;;13.40;4.57;;;18.00;99.90;;;;;;5052593;28;20017;-67
2023/04/22 10:03:23;;;;;;;10.90;5.18;;;18.00;99.90;;;;;;5040299;28;20029;-67
2023/04/22 10:05:51;;;;;;;10.65;5.85;;;18.00;99.90;;;;;;5026561;28;20029;-66
2023/04/22 10:08:19;;;;;;;13.35;5.80;;;18.00;99.90;;;;;;5033585;28;20029;-66
2023/04/22 10:10:46;;;;;;;11.80;5.60;;;18.00;99.90;;;;;;5032082;28;20137;-68
2023/04/22 10:13:14;;;;;;;11.55;5.68;;;18.00;99.90;;;;;;5019005;28;20030;-67
2023/04/22 10:15:43;;;;;;;11.38;6.70;;;18.00;99.90;;;;;;5037300;28;20159;-67
2023/04/22 10:18:16;;;;;;;14.38;6.50;;;18.00;99.90;;;;;;5037145;28;20028;-68
2023/04/22 10:20:45;;;;;;;17.75;6.45;;;18.00;99.90;;;;;;5041060;28;20090;-68
2023/04/22 10:23:19;;;;;;;11.90;7.07;;;18.00;99.90;;;;;;5032716;28;20589;-68
2023/04/22 10:25:56;;;;;;;15.75;7.68;;;17.90;99.90;;;;;;5032701;28;20032;-68
2023/04/22 10:28:34;;;;;;;19.23;7.95;;;17.90;99.90;;;;;;5042811;28;20032;-72
2023/04/22 10:31:06;;;;;;;16.75;7.90;;;17.80;99.90;;;;;;5033362;28;20589;-69
2023/04/22 10:33:37;;;;;;;13.20;7.25;;;17.80;99.90;;;;;;5025912;28;20025;-67
2023/04/22 10:36:13;;;;;;;19.45;8.25;;;17.80;99.90;;;;;;5040964;28;20025;-68
2023/04/22 10:38:50;;;;;;;10.75;7.68;;;17.70;99.90;;;;;;5026219;28;20478;-67
2023/04/22 10:41:28;;;;;;;16.05;9.15;;;17.70;99.90;;;;;;5024209;28;20436;-67
2023/04/22 10:43:59;;;;;;;17.45;8.10;;;17.70;99.90;;;;;;5038863;28;20025;-67
2023/04/22 10:46:36;;;;;;;20.30;8.88;;;17.60;99.90;;;;;;5034197;28;20039;-68
2023/04/22 10:49:08;;;;;;;21.20;9.50;;;17.60;99.90;;;;;;5032651;28;20037;-66
2023/04/22 10:51:43;;;;;;;17.90;8.23;;;17.60;99.90;;;;;;5030232;28;20039;-68
2023/04/22 10:54:35;;;;;;;23.10;9.05;;;17.60;99.90;;;;;;5038207;28;20108;-68
2023/04/22 10:57:07;;;;;;;20.33;9.77;;;17.60;99.90;;;;;;5037114;28;20025;-69
2023/04/22 10:59:45;;;;;;;18.83;9.63;;;17.60;99.90;;;;;;5029710;28;20026;-67
2023/04/22 11:02:15;;;;;;;12.68;8.63;;;17.60;99.90;;;;;;5045933;28;20067;-66
2023/04/22 11:04:43;;;;;;;23.65;10.38;;;17.50;99.90;;;;;;5028152;28;20390;-67
2023/04/22 11:07:21;;;;;;;29.33;10.70;;;17.50;99.90;;;;;;5024546;28;20063;-68
2023/04/22 11:10:14;;;;;;;27.00;11.10;;;17.50;99.90;;;;;;5027063;28;20045;-66
2023/04/22 11:12:45;;;;;;;26.98;9.70;;;17.50;99.90;;;;;;5047654;28;20092;-66
2023/04/22 11:15:21;;;;;;;19.67;9.40;;;17.50;99.90;;;;;;5038104;28;20090;-66
2023/04/22 11:17:53;;;;;;;20.80;9.27;;;17.50;99.90;;;;;;5031635;28;20551;-67
2023/04/22 11:20:21;;;;;;;14.93;10.00;;;17.50;99.90;;;;;;5046393;28;20104;-66
2023/04/22 11:22:52;;;;;;;16.58;10.25;;;17.50;99.90;;;;;;5048449;28;20401;-66
2023/04/22 11:25:20;;;;;;;17.85;9.82;;;17.50;99.90;;;;;;5057351;28;20056;-67
2023/04/22 11:27:48;;;;;;;19.15;10.00;;;17.50;99.90;;;;;;5053090;28;20385;-66
2023/04/22 11:30:20;;;;;;;20.95;9.75;;;17.50;99.90;;;;;;5070970;28;20041;-66
2023/04/22 11:32:49;;;;;;;19.60;10.25;;;17.50;99.90;;;;;;5051504;28;20432;-67
2023/04/22 11:35:32;;;;;;;14.27;9.35;;;17.50;99.90;;;;;;5036745;28;20123;-65
2023/04/22 11:38:02;;;;;;;18.55;9.68;;;17.50;99.90;;;;;;5038881;28;20017;-66
2023/04/22 11:40:31;;;;;;;18.13;8.32;;;17.50;99.90;;;;;;5044761;28;20063;-66
2023/04/22 11:43:02;;;;;;;16.30;8.90;;;17.50;99.90;;;;;;5045994;28;20031;-67
2023/04/22 11:45:31;;;;;;;19.23;9.40;;;17.50;99.90;;;;;;5025500;28;20051;-67
2023/04/22 11:48:00;;;;;;;12.95;8.90;;;17.50;99.90;;;;;;5050727;28;20490;-67
2023/04/22 11:50:30;;;;;;;18.58;9.73;;;17.50;99.90;;;;;;5032472;28;20059;-67
2023/04/22 11:53:23;;;;;;;20.08;8.57;;;17.50;99.90;;;;;;5019325;28;20486;-67
2023/04/22 11:55:51;;;;;;;19.92;9.20;;;17.50;99.90;;;;;;5030516;28;20032;-66
2023/04/22 11:58:28;;;;;;;17.40;9.63;;;17.50;99.90;;;;;;5026093;28;20048;-67
2023/04/22 12:00:59;;;;;;;20.25;10.18;;;17.50;99.90;;;;;;5024391;28;20041;-67
2023/04/22 12:03:30;;;;;;;18.15;9.68;;;17.50;99.90;;;;;;5038823;28;20029;-67
2023/04/22 12:06:05;;;;;;;14.73;9.07;;;17.50;99.90;;;;;;5043112;28;20037;-67
2023/04/22 12:08:43;;;;;;;21.95;10.45;;;17.50;99.90;;;;;;5033079;28;20048;-68
2023/04/22 12:11:12;;;;;;;14.40;9.98;;;17.40;99.90;;;;;;5026241;28;20029;-67
2023/04/22 12:13:41;;;;;;;14.32;9.57;;;17.40;99.90;;;;;;5022234;28;20038;-68
2023/04/22 12:16:14;;;;;;;17.48;8.82;;;17.40;99.90;;;;;;5004356;28;20076;-67
2023/04/22 12:19:03;;;;;;;15.60;8.25;;;17.40;99.90;;;;;;5014942;28;20122;-66
2023/04/22 12:21:31;;;;;;;11.65;8.25;;;17.40;99.90;;;;;;5002579;28;20470;-66
2023/04/22 12:24:09;;;;;;;12.98;8.15;;;17.30;99.90;;;;;;5007806;28;20034;-67
2023/04/22 12:26:39;;;;;;;11.73;7.35;;;17.20;99.90;;;;;;5019923;28;20058;-66
2023/04/22 12:29:07;;;;;;;13.20;7.53;;;17.10;99.90;;;;;;4995901;28;20034;-66
2023/04/22 12:31:36;;;;;;;9.65;6.80;;;17.00;99.90;;;;;;5003939;28;20514;-66
2023/04/22 12:34:07;;;;;;;9.20;6.90;;;16.80;99.90;;;;;;5007830;28;20401;-66
2023/04/22 12:36:35;;;;;;;11.65;6.35;;;16.70;99.90;;;;;;5006642;28;20133;-66
2023/04/22 12:39:03;;;;;;;11.48;7.00;;;16.50;99.90;;;;;;4999220;28;20519;-67
2023/04/22 12:41:31;;;;;;;12.25;8.15;;;16.40;99.90;;;;;;5018655;28;20037;-66
2023/04/22 12:43:58;;;;;;;10.93;7.20;;;16.30;99.90;;;;;;5006239;28;20117;-67
2023/04/22 12:46:26;;;;;;;14.88;8.55;;;16.30;99.90;;;;;;5000029;28;20026;-66
2023/04/22 12:48:54;;;;;;;16.23;7.45;;;16.20;99.90;;;;;;5001489;28;20033;-67
2023/04/22 12:51:21;;;;;;;10.82;6.60;;;16.10;99.90;;;;;;5004125;28;20069;-67